Time;durP1;ratioP1;P1;durP2;ratioP2;P2;SDS_P1;SDS_P2;PMS_P1;PMS_P2;Temp;Humidity;BMP_temperature;BMP_pressure;BME280_temperature;BME280_humidity;BME280_pressure;Samples;Min_cycle;Max_cycle;Signal;HPM_P1;HPM_P2
2022/01/28 00:04:55;;;;;;;0.90;0.90;;;5.20;99.90;;;;;;5269381;28;20047;-75
2022/01/28 00:07:26;;;;;;;0.63;0.63;;;5.10;99.90;;;;;;5273348;28;20064;-73
2022/01/28 00:09:58;;;;;;;0.50;0.50;;;5.20;99.90;;;;;;5280835;28;20055;-73
2022/01/28 00:12:30;;;;;;;0.50;0.50;;;5.20;99.90;;;;;;5262235;28;20019;-73
2022/01/28 00:15:17;;;;;;;0.60;0.60;;;5.20;99.90;;;;;;5263302;28;20089;-73
2022/01/28 00:40:31;;;;;;;0.60;0.60;;;5.30;99.90;;;;;;5285057;28;20042;-73
2022/01/28 00:43:04;;;;;;;0.50;0.50;;;5.40;99.90;;;;;;5281324;28;20027;-73
2022/01/28 00:45:35;;;;;;;0.50;0.50;;;5.40;99.90;;;;;;5284289;28;20031;-73
2022/01/28 00:48:08;;;;;;;0.50;0.50;;;5.40;99.90;;;;;;5266768;28;20046;-74
2022/01/28 00:50:41;;;;;;;0.60;0.60;;;5.30;99.90;;;;;;5284620;28;20035;-74
2022/01/28 00:53:12;;;;;;;0.63;0.63;;;5.30;99.90;;;;;;5266772;28;20294;-74
2022/01/28 00:55:45;;;;;;;0.55;0.55;;;5.30;99.90;;;;;;5265703;28;20026;-74
2022/01/28 00:58:19;;;;;;;0.50;0.50;;;5.20;99.90;;;;;;5284617;28;20584;-74
2022/01/28 01:00:50;;;;;;;2.15;1.95;;;5.20;99.90;;;;;;5284411;28;20571;-73
2022/01/28 01:03:23;;;;;;;0.50;0.50;;;5.20;99.90;;;;;;5283390;28;20350;-74
2022/01/28 01:05:54;;;;;;;0.57;0.57;;;5.20;99.90;;;;;;5271611;27;20094;-74
2022/01/28 01:08:24;;;;;;;0.60;0.60;;;5.20;99.90;;;;;;5283310;28;20385;-74
2022/01/28 01:11:01;;;;;;;0.50;0.50;;;5.10;99.90;;;;;;5283286;28;20108;-73
2022/01/28 01:13:40;;;;;;;0.50;0.50;;;5.00;99.90;;;;;;5250202;28;20028;-74
2022/01/28 01:16:15;;;;;;;0.60;0.60;;;4.90;99.90;;;;;;5281230;28;20016;-74
2022/01/28 01:21:41;;;;;;;0.50;0.50;;;4.90;99.90;;;;;;5283913;28;20020;-74
2022/01/28 01:24:21;;;;;;;0.50;0.50;;;4.90;99.90;;;;;;5260610;28;20084;-73
2022/01/28 01:26:59;;;;;;;0.70;0.70;;;5.00;99.90;;;;;;5244807;28;20020;-74
2022/01/28 01:29:32;;;;;;;0.50;0.50;;;5.00;99.90;;;;;;5244400;28;20070;-73
2022/01/28 01:32:12;;;;;;;0.70;0.70;;;5.10;99.90;;;;;;5285264;28;20068;-75
2022/01/28 01:34:43;;;;;;;0.80;0.80;;;5.10;99.90;;;;;;5267321;28;20016;-73
2022/01/28 01:37:14;;;;;;;0.77;0.77;;;5.10;99.90;;;;;;5283835;28;20598;-73
2022/01/28 01:39:48;;;;;;;0.60;0.60;;;5.10;99.90;;;;;;5283372;28;20031;-73
2022/01/28 01:53:48;;;;;;;0.50;0.50;;;5.10;99.90;;;;;;5264419;28;20361;-73
2022/01/28 01:56:23;;;;;;;0.43;0.43;;;5.00;99.90;;;;;;5284989;28;20312;-73
2022/01/28 01:58:57;;;;;;;0.70;0.70;;;5.00;99.90;;;;;;5264917;28;20638;-74
2022/01/28 02:01:28;;;;;;;;;;;5.00;99.90;;;;;;5281323;28;20095;-73
2022/01/28 02:03:58;;;;;;;0.80;0.80;;;5.00;99.90;;;;;;5263801;28;19903;-73
2022/01/28 02:06:33;;;;;;;0.60;0.60;;;5.00;99.90;;;;;;5273208;28;20047;-73
2022/01/28 02:09:08;;;;;;;0.70;0.70;;;5.00;99.90;;;;;;5284716;28;20058;-74
2022/01/28 02:11:44;;;;;;;0.70;0.70;;;5.00;99.90;;;;;;5265212;28;20352;-76
2022/01/28 02:14:19;;;;;;;0.40;0.40;;;4.80;99.90;;;;;;5282823;28;20019;-74
2022/01/28 02:16:52;;;;;;;0.70;0.70;;;4.80;99.90;;;;;;5282542;28;20092;-73
2022/01/28 02:19:23;;;;;;;0.50;0.50;;;4.80;99.90;;;;;;5282895;28;20069;-75
2022/01/28 02:21:56;;;;;;;0.55;0.55;;;4.80;99.90;;;;;;5280605;28;20035;-74
2022/01/28 02:24:38;;;;;;;0.65;0.65;;;4.80;99.90;;;;;;5282190;28;20061;-73
2022/01/28 02:27:14;;;;;;;0.45;0.45;;;4.70;99.90;;;;;;5282234;28;20031;-73
2022/01/28 02:29:49;;;;;;;0.52;0.52;;;4.80;99.90;;;;;;5236485;28;20027;-73
2022/01/28 02:32:20;;;;;;;0.50;0.50;;;4.70;99.90;;;;;;5252812;28;20036;-74
2022/01/28 02:34:54;;;;;;;0.65;0.65;;;4.70;99.90;;;;;;5282127;28;20049;-74
2022/01/28 02:37:27;;;;;;;0.50;0.50;;;4.70;99.90;;;;;;5264545;28;20023;-74
2022/01/28 02:39:58;;;;;;;0.70;0.70;;;4.60;99.90;;;;;;5282065;28;20019;-73
2022/01/28 02:42:45;;;;;;;0.63;0.63;;;4.60;99.90;;;;;;5263466;28;20031;-74
2022/01/28 02:45:25;;;;;;;0.45;0.45;;;4.50;99.90;;;;;;5263844;28;20022;-74
2022/01/28 02:48:03;;;;;;;0.57;0.57;;;4.50;99.90;;;;;;5270071;28;20027;-73
2022/01/28 02:50:42;;;;;;;0.45;0.45;;;4.50;99.90;;;;;;5263574;28;20042;-73
2022/01/28 02:53:22;;;;;;;0.50;0.50;;;4.40;99.90;;;;;;5262789;28;20024;-74
2022/01/28 02:56:02;;;;;;;0.57;0.57;;;4.40;99.90;;;;;;5263996;28;20024;-73
2022/01/28 02:58:33;;;;;;;0.50;0.50;;;4.40;99.90;;;;;;5264329;28;20015;-73
2022/01/28 03:01:07;;;;;;;0.63;0.63;;;4.40;99.90;;;;;;5280645;28;20104;-73
2022/01/28 03:03:40;;;;;;;0.50;0.50;;;4.40;99.90;;;;;;5282479;28;20019;-75
2022/01/28 03:06:13;;;;;;;0.50;0.50;;;4.40;99.90;;;;;;5270262;28;20036;-75
2022/01/28 03:08:55;;;;;;;0.50;0.50;;;4.40;99.90;;;;;;5284617;28;20024;-73
2022/01/28 03:11:43;;;;;;;0.40;0.40;;;4.40;99.90;;;;;;5281301;28;20060;-74
2022/01/28 03:14:22;;;;;;;0.50;0.50;;;4.30;99.90;;;;;;5263919;28;20054;-73
2022/01/28 03:17:10;;;;;;;0.50;0.50;;;4.40;99.90;;;;;;5278866;28;20068;-73
2022/01/28 03:19:48;;;;;;;0.57;0.57;;;4.50;99.90;;;;;;5280452;28;20051;-73
2022/01/28 03:22:30;;;;;;;0.43;0.43;;;4.50;99.90;;;;;;5264300;28;20090;-74
2022/01/28 03:25:06;;;;;;;0.47;0.47;;;4.50;99.90;;;;;;5264822;28;20024;-74
2022/01/28 03:30:13;;;;;;;0.73;0.73;;;4.40;99.90;;;;;;5284151;27;20054;-74
2022/01/28 03:32:43;;;;;;;0.50;0.50;;;4.40;99.90;;;;;;5264764;28;20072;-74
2022/01/28 03:35:18;;;;;;;0.50;0.50;;;4.40;99.90;;;;;;5264752;28;20023;-74
2022/01/28 03:37:59;;;;;;;;;;;4.40;99.90;;;;;;5282932;28;20099;-74
2022/01/28 03:40:37;;;;;;;0.50;0.50;;;4.40;99.90;;;;;;5263452;28;19974;-74
2022/01/28 03:43:10;;;;;;;0.70;0.70;;;4.50;99.90;;;;;;5281814;28;20027;-73
2022/01/28 03:45:41;;;;;;;0.70;0.70;;;4.40;99.90;;;;;;5281408;28;20035;-73
2022/01/28 03:48:14;;;;;;;0.65;0.65;;;4.50;99.90;;;;;;5280813;28;20032;-74
2022/01/28 03:50:45;;;;;;;0.68;0.68;;;4.50;99.90;;;;;;5280607;28;20031;-73
2022/01/28 03:53:18;;;;;;;0.70;0.70;;;4.50;99.90;;;;;;5261316;28;20019;-75
2022/01/28 03:55:57;;;;;;;0.50;0.50;;;4.50;99.90;;;;;;5279047;28;20532;-73
2022/01/28 03:58:30;;;;;;;0.57;0.57;;;4.50;99.90;;;;;;5280285;28;20468;-74
2022/01/28 04:01:02;;;;;;;0.57;0.57;;;4.60;99.90;;;;;;5262649;28;20050;-74
2022/01/28 04:11:31;;;;;;;0.52;0.52;;;4.70;99.90;;;;;;5262968;28;20331;-74
2022/01/28 04:14:21;;;;;;;0.55;0.55;;;4.70;99.90;;;;;;5263533;28;20050;-73
2022/01/28 04:19:41;;;;;;;0.60;0.60;;;4.70;99.90;;;;;;5252421;28;20238;-74
2022/01/28 04:22:16;;;;;;;0.50;0.50;;;4.70;99.90;;;;;;5281446;28;20020;-73
2022/01/28 04:24:50;;;;;;;0.40;0.40;;;4.70;99.90;;;;;;5263399;28;20024;-73
2022/01/28 04:27:20;;;;;;;0.50;0.50;;;4.70;99.90;;;;;;5276794;28;20016;-75
2022/01/28 04:29:54;;;;;;;0.50;0.50;;;4.60;99.90;;;;;;5260622;28;20032;-75
2022/01/28 04:32:27;;;;;;;0.60;0.60;;;4.70;99.90;;;;;;5280964;28;20591;-75
2022/01/28 04:35:10;;;;;;;0.88;0.88;;;4.70;99.90;;;;;;5262928;28;20012;-75
2022/01/28 04:37:57;;;;;;;0.50;0.50;;;4.70;99.90;;;;;;5262135;28;20518;-75
2022/01/28 04:40:35;;;;;;;0.57;0.57;;;4.60;99.90;;;;;;5269886;28;20440;-75
2022/01/28 04:43:17;;;;;;;0.50;0.50;;;4.60;99.90;;;;;;5283120;28;20015;-75
2022/01/28 04:46:04;;;;;;;0.50;0.50;;;4.80;99.90;;;;;;5266455;28;20058;-75
2022/01/28 04:48:53;;;;;;;0.40;0.40;;;4.70;99.90;;;;;;5263441;28;20084;-75
2022/01/28 04:57:50;;;;;;;0.50;0.50;;;4.70;99.90;;;;;;5279790;28;20024;-74
2022/01/28 05:27:38;;;;;;;0.70;0.70;;;4.60;99.90;;;;;;5280915;28;20039;-74
2022/01/28 05:30:10;;;;;;;0.50;0.50;;;4.60;99.90;;;;;;5262468;28;20044;-74
2022/01/28 05:32:43;;;;;;;0.50;0.50;;;4.50;99.90;;;;;;5283147;28;20023;-74
2022/01/28 05:35:19;;;;;;;0.50;0.50;;;4.40;99.90;;;;;;5283924;28;20036;-74
2022/01/28 05:37:50;;;;;;;0.60;0.60;;;4.40;99.90;;;;;;5282997;28;20019;-74
2022/01/28 05:40:23;;;;;;;0.60;0.60;;;4.40;99.90;;;;;;5283750;28;20046;-74
2022/01/28 05:42:54;;;;;;;0.70;0.70;;;4.40;99.90;;;;;;5284197;28;20102;-74
2022/01/28 05:45:25;;;;;;;0.50;0.50;;;4.40;99.90;;;;;;5283552;28;20054;-76
2022/01/28 05:47:59;;;;;;;1.00;0.98;;;4.40;99.90;;;;;;5248661;28;20043;-74
2022/01/28 05:50:29;;;;;;;0.70;0.70;;;4.40;99.90;;;;;;5283875;28;20039;-74
2022/01/28 05:53:04;;;;;;;0.50;0.50;;;4.40;99.90;;;;;;5264705;28;20087;-73
2022/01/28 05:55:38;;;;;;;0.60;0.60;;;4.40;99.90;;;;;;5281301;28;20404;-75
2022/01/28 05:58:10;;;;;;;0.73;0.73;;;4.50;99.90;;;;;;5255293;28;20027;-74
2022/01/28 06:00:42;;;;;;;0.60;0.60;;;4.50;99.90;;;;;;5264588;28;20061;-75
2022/01/28 06:03:15;;;;;;;0.65;0.65;;;4.60;99.90;;;;;;5258013;28;20027;-75
2022/01/28 06:05:47;;;;;;;0.73;0.73;;;4.50;99.90;;;;;;5263021;28;20074;-75
2022/01/28 06:08:21;;;;;;;0.73;0.73;;;4.60;99.90;;;;;;5283044;28;20024;-75
2022/01/28 06:10:51;;;;;;;0.80;0.80;;;4.60;99.90;;;;;;5281975;28;20476;-75
2022/01/28 06:13:24;;;;;;;0.70;0.70;;;4.60;99.90;;;;;;5258232;28;20015;-74
2022/01/28 06:15:58;;;;;;;0.68;0.68;;;4.60;99.90;;;;;;5281610;28;20027;-74
2022/01/28 06:18:29;;;;;;;0.52;0.52;;;4.60;99.90;;;;;;5263098;27;20159;-74
2022/01/28 06:20:59;;;;;;;0.70;0.70;;;4.50;99.90;;;;;;5274648;28;20063;-74
2022/01/28 06:23:33;;;;;;;0.90;0.90;;;4.50;99.90;;;;;;5275930;28;20072;-74
2022/01/28 06:26:06;;;;;;;0.90;0.90;;;4.40;99.90;;;;;;5281630;28;20069;-74
2022/01/28 06:28:42;;;;;;;0.70;0.70;;;4.50;99.90;;;;;;5279888;28;20045;-74
2022/01/28 06:31:13;;;;;;;0.57;0.57;;;4.40;99.90;;;;;;5263186;28;20059;-74
2022/01/28 06:33:48;;;;;;;0.85;0.85;;;4.40;99.90;;;;;;5282195;28;20369;-74
2022/01/28 06:36:21;;;;;;;1.05;1.05;;;4.40;99.90;;;;;;5264547;28;20026;-74
2022/01/28 06:38:51;;;;;;;0.52;0.52;;;4.30;99.90;;;;;;5265294;28;20485;-74
2022/01/28 06:41:27;;;;;;;0.50;0.50;;;4.30;99.90;;;;;;5282634;28;20026;-74
2022/01/28 06:43:58;;;;;;;0.50;0.50;;;4.20;99.90;;;;;;5269160;28;20086;-74
2022/01/28 06:46:38;;;;;;;0.50;0.50;;;4.30;99.90;;;;;;5263765;28;20474;-74
2022/01/28 06:49:13;;;;;;;0.45;0.45;;;4.30;99.90;;;;;;5247984;28;20031;-74
2022/01/28 06:51:47;;;;;;;0.47;0.47;;;4.20;99.90;;;;;;5281094;28;20015;-74
2022/01/28 06:54:18;;;;;;;0.52;0.52;;;4.20;99.90;;;;;;5238158;28;20060;-73
2022/01/28 06:56:49;;;;;;;0.70;0.70;;;4.10;99.90;;;;;;5282348;28;20031;-74
2022/01/28 06:59:20;;;;;;;0.60;0.60;;;4.20;99.90;;;;;;5281227;28;20023;-73
2022/01/28 07:01:53;;;;;;;0.57;0.57;;;4.10;99.90;;;;;;5281282;28;20370;-73
2022/01/28 07:04:24;;;;;;;0.50;0.50;;;4.10;99.90;;;;;;5267864;28;20054;-73
2022/01/28 07:07:00;;;;;;;0.90;0.90;;;4.20;99.90;;;;;;5263067;28;20099;-73
2022/01/28 07:09:34;;;;;;;0.82;0.82;;;4.20;99.90;;;;;;5281920;28;20449;-73
2022/01/28 07:12:09;;;;;;;0.50;0.50;;;4.20;99.90;;;;;;5270275;28;20016;-74
2022/01/28 07:14:42;;;;;;;0.50;0.50;;;4.20;99.90;;;;;;5264378;28;20028;-74
2022/01/28 07:17:13;;;;;;;0.60;0.60;;;4.30;99.90;;;;;;5263938;28;20024;-74
2022/01/28 07:19:46;;;;;;;0.43;0.43;;;4.30;99.90;;;;;;5279853;28;20023;-74
2022/01/28 07:22:19;;;;;;;0.75;0.75;;;4.40;99.90;;;;;;5261096;28;20034;-73
2022/01/28 07:24:50;;;;;;;0.70;0.70;;;4.40;99.90;;;;;;5263012;28;20035;-74
2022/01/28 07:27:21;;;;;;;0.60;0.60;;;4.50;99.90;;;;;;5275762;28;20012;-74
2022/01/28 07:29:56;;;;;;;0.50;0.50;;;4.60;99.90;;;;;;5261232;28;20534;-74
2022/01/28 07:32:30;;;;;;;0.50;0.50;;;4.60;99.90;;;;;;5277965;28;20288;-74
2022/01/28 07:35:01;;;;;;;0.30;0.30;;;4.70;99.90;;;;;;5281332;28;20019;-74
2022/01/28 07:37:33;;;;;;;0.60;0.60;;;4.70;99.90;;;;;;5281131;28;20233;-74
2022/01/28 07:40:05;;;;;;;0.50;0.50;;;4.80;99.90;;;;;;5256918;28;20031;-73
2022/01/28 07:42:40;;;;;;;0.50;0.50;;;4.80;99.90;;;;;;5260227;28;20106;-74
2022/01/28 07:45:14;;;;;;;0.40;0.40;;;4.90;99.90;;;;;;5274339;28;20039;-73
2022/01/28 07:47:45;;;;;;;0.80;0.80;;;4.90;99.90;;;;;;5261751;28;20035;-74
2022/01/28 07:50:16;;;;;;;0.40;0.40;;;4.90;99.90;;;;;;5279651;28;20062;-74
2022/01/28 07:52:51;;;;;;;0.50;0.50;;;4.90;99.90;;;;;;5255874;28;20076;-75
2022/01/28 07:55:24;;;;;;;0.50;0.50;;;5.00;99.90;;;;;;5280239;28;20027;-74
2022/01/28 07:57:55;;;;;;;0.40;0.40;;;5.10;99.90;;;;;;5279814;28;20027;-75
2022/01/28 08:00:31;;;;;;;0.50;0.50;;;5.20;99.90;;;;;;5278802;28;20076;-75
2022/01/28 08:03:04;;;;;;;0.70;0.70;;;5.20;99.90;;;;;;5254018;28;20611;-75
2022/01/28 08:05:35;;;;;;;0.45;0.45;;;5.10;99.90;;;;;;5264838;28;20067;-74
2022/01/28 08:08:11;;;;;;;0.60;0.60;;;5.20;99.90;;;;;;5280039;28;20023;-74
2022/01/28 08:10:52;;;;;;;0.40;0.40;;;5.30;99.90;;;;;;5244279;28;20102;-74
2022/01/28 08:13:23;;;;;;;0.57;0.57;;;5.30;99.90;;;;;;5272139;28;20100;-75
2022/01/28 08:15:54;;;;;;;0.50;0.50;;;5.40;99.90;;;;;;5273868;28;20027;-75
2022/01/28 08:18:27;;;;;;;0.50;0.50;;;5.50;99.90;;;;;;5260482;28;20134;-75
2022/01/28 08:20:58;;;;;;;0.65;0.65;;;5.40;99.90;;;;;;5278535;28;20054;-74
2022/01/28 08:23:32;;;;;;;0.50;0.50;;;5.50;99.90;;;;;;5277205;28;20091;-74
2022/01/28 08:26:04;;;;;;;0.57;0.57;;;5.50;99.90;;;;;;5280916;28;20027;-75
2022/01/28 08:28:37;;;;;;;0.73;0.73;;;5.70;99.90;;;;;;5263153;28;20028;-74
2022/01/28 08:31:09;;;;;;;0.60;0.60;;;5.90;99.90;;;;;;5278878;28;20050;-74
2022/01/28 08:33:40;;;;;;;0.50;0.50;;;5.90;99.90;;;;;;5278258;28;20022;-74
2022/01/28 08:36:13;;;;;;;0.47;0.47;;;6.00;99.90;;;;;;5280519;28;20031;-74
2022/01/28 08:38:49;;;;;;;0.52;0.52;;;6.00;99.90;;;;;;5279796;28;20027;-73
2022/01/28 08:41:25;;;;;;;0.60;0.60;;;6.10;99.90;;;;;;5268703;28;20031;-74
2022/01/28 08:43:59;;;;;;;0.77;0.77;;;6.10;99.90;;;;;;5279999;28;20019;-75
2022/01/28 08:46:32;;;;;;;0.50;0.50;;;5.80;99.90;;;;;;5277294;28;20050;-74
2022/01/28 08:49:04;;;;;;;0.70;0.70;;;5.70;99.90;;;;;;5279494;28;20031;-75
2022/01/28 08:51:37;;;;;;;0.57;0.57;;;5.70;99.90;;;;;;5268186;28;20077;-73
2022/01/28 08:54:08;;;;;;;0.68;0.68;;;5.70;99.90;;;;;;5266370;28;20026;-74
2022/01/28 08:56:41;;;;;;;0.60;0.60;;;5.60;99.90;;;;;;5266287;28;20361;-74
2022/01/28 08:59:12;;;;;;;0.65;0.65;;;5.70;99.90;;;;;;5283186;28;20039;-74
2022/01/28 09:01:43;;;;;;;0.60;0.60;;;5.70;99.90;;;;;;5282173;28;20023;-74
2022/01/28 09:04:16;;;;;;;0.70;0.70;;;5.70;99.90;;;;;;5255085;28;20055;-73
2022/01/28 09:06:49;;;;;;;0.60;0.60;;;5.80;99.90;;;;;;5276813;28;20038;-75
2022/01/28 09:09:22;;;;;;;0.70;0.70;;;5.80;99.90;;;;;;5277230;28;20038;-74
2022/01/28 09:14:33;;;;;;;0.50;0.50;;;5.70;99.90;;;;;;5255600;28;20092;-74
2022/01/28 09:17:04;;;;;;;0.90;0.90;;;5.60;99.90;;;;;;5279036;28;20023;-73
2022/01/28 09:19:37;;;;;;;0.60;0.60;;;5.60;99.90;;;;;;5284308;28;20483;-74
2022/01/28 09:22:10;;;;;;;0.70;0.70;;;5.50;99.90;;;;;;5265548;28;20024;-74
2022/01/28 09:24:44;;;;;;;0.75;0.75;;;5.40;99.90;;;;;;5282805;28;20035;-74
2022/01/28 09:27:18;;;;;;;0.40;0.40;;;5.30;99.90;;;;;;5283690;28;20024;-74
2022/01/28 09:29:50;;;;;;;0.80;0.80;;;5.30;99.90;;;;;;5259520;28;20258;-74
2022/01/28 09:32:20;;;;;;;0.55;0.55;;;5.30;99.90;;;;;;5255671;28;20020;-74
2022/01/28 09:34:51;;;;;;;0.40;0.40;;;5.10;99.90;;;;;;5281921;28;20112;-74
2022/01/28 09:37:22;;;;;;;0.50;0.50;;;5.00;99.90;;;;;;5283443;28;20027;-74
2022/01/28 09:39:53;;;;;;;0.40;0.40;;;4.90;99.90;;;;;;5247096;28;20027;-74
2022/01/28 09:42:29;;;;;;;0.55;0.55;;;4.70;99.90;;;;;;5265290;28;20023;-74
2022/01/28 09:45:03;;;;;;;0.45;0.45;;;4.60;99.90;;;;;;5281062;28;20019;-74
2022/01/28 09:47:37;;;;;;;0.40;0.40;;;4.50;99.90;;;;;;5285510;27;20035;-73
2022/01/28 09:50:08;;;;;;;0.60;0.60;;;4.40;99.90;;;;;;5264298;28;20047;-73
2022/01/28 09:52:41;;;;;;;0.65;0.65;;;4.60;99.90;;;;;;5267480;28;20028;-73
2022/01/28 09:55:12;;;;;;;0.80;0.80;;;5.00;99.90;;;;;;5282934;28;20026;-75
2022/01/28 09:57:47;;;;;;;0.77;0.77;;;5.10;99.90;;;;;;5283118;28;20039;-73
2022/01/28 10:00:21;;;;;;;0.60;0.60;;;5.20;99.90;;;;;;5282570;28;20042;-73
2022/01/28 10:03:05;;;;;;;0.60;0.60;;;5.30;99.90;;;;;;5282131;28;20055;-75
2022/01/28 10:05:51;;;;;;;0.77;0.77;;;5.50;99.90;;;;;;5266170;28;20051;-75
2022/01/28 10:08:27;;;;;;;0.50;0.50;;;5.60;99.90;;;;;;5273764;28;20054;-74
2022/01/28 10:11:09;;;;;;;0.75;0.75;;;5.60;99.90;;;;;;5275541;28;20028;-74
2022/01/28 10:13:53;;;;;;;0.90;0.90;;;5.60;99.90;;;;;;5279439;28;20038;-74
2022/01/28 10:16:27;;;;;;;0.50;0.50;;;5.70;99.90;;;;;;5250093;28;20055;-74
2022/01/28 10:19:07;;;;;;;0.60;0.60;;;5.80;99.90;;;;;;5283169;28;20031;-74
2022/01/28 10:21:48;;;;;;;0.70;0.70;;;5.80;99.90;;;;;;5244863;28;20610;-75
2022/01/28 10:24:24;;;;;;;0.60;0.60;;;6.10;99.90;;;;;;5280776;28;20036;-75
2022/01/28 10:27:09;;;;;;;0.40;0.40;;;6.20;99.90;;;;;;5280160;28;20053;-76
2022/01/28 10:29:43;;;;;;;0.55;0.55;;;6.10;99.90;;;;;;5279440;28;20026;-75
2022/01/28 10:32:20;;;;;;;0.80;0.80;;;6.30;99.90;;;;;;5247494;28;20325;-75
2022/01/28 10:34:51;;;;;;;0.65;0.65;;;6.40;99.90;;;;;;5278892;28;20026;-74
2022/01/28 10:37:32;;;;;;;0.75;0.75;;;6.30;99.90;;;;;;5284681;28;20028;-74
2022/01/28 10:40:09;;;;;;;0.60;0.60;;;6.80;99.90;;;;;;5264521;28;20033;-74
2022/01/28 10:42:51;;;;;;;0.80;0.80;;;7.00;99.90;;;;;;5273492;28;20016;-75
2022/01/28 10:45:28;;;;;;;0.77;0.77;;;7.00;99.90;;;;;;5282015;28;20015;-75
2022/01/28 10:48:04;;;;;;;0.80;0.80;;;7.10;99.90;;;;;;5281003;28;20031;-76
2022/01/28 10:50:38;;;;;;;0.63;0.63;;;6.60;99.90;;;;;;5282201;27;20035;-74
2022/01/28 10:53:21;;;;;;;0.77;0.77;;;7.30;99.90;;;;;;5271070;28;20023;-75
2022/01/28 10:55:54;;;;;;;0.50;0.50;;;7.00;99.90;;;;;;5279179;28;20063;-74
2022/01/28 10:58:30;;;;;;;1.02;1.02;;;7.00;99.90;;;;;;5281312;28;20035;-73
2022/01/28 11:01:01;;;;;;;0.60;0.60;;;7.40;99.90;;;;;;5274928;28;20032;-74
2022/01/28 11:03:32;;;;;;;0.60;0.60;;;7.10;99.90;;;;;;5282167;28;20065;-74
2022/01/28 11:06:06;;;;;;;0.50;0.50;;;6.80;99.90;;;;;;5271652;28;20078;-74
2022/01/28 11:08:37;;;;;;;0.70;0.70;;;7.50;99.90;;;;;;5265643;27;20039;-74
2022/01/28 11:11:11;;;;;;;0.70;0.70;;;6.90;99.90;;;;;;5280446;28;20059;-74
2022/01/28 11:13:48;;;;;;;0.60;0.60;;;6.20;99.90;;;;;;5260655;28;20073;-75
2022/01/28 11:16:22;;;;;;;0.88;0.88;;;6.10;99.90;;;;;;5279698;28;20248;-74
2022/01/28 11:18:56;;;;;;;1.02;1.02;;;6.00;99.90;;;;;;5282751;28;20020;-75
2022/01/28 11:22:04;;;;;;;0.65;0.65;;;7.00;99.90;;;;;;5281719;28;20072;-73
2022/01/28 11:24:52;;;;;;;0.68;0.68;;;7.10;99.90;;;;;;5264317;28;20039;-74
2022/01/28 11:27:38;;;;;;;0.90;0.90;;;6.40;99.90;;;;;;5261852;28;20020;-74
2022/01/28 11:30:15;;;;;;;0.63;0.63;;;7.00;99.90;;;;;;5278849;28;20088;-73
2022/01/28 11:33:06;;;;;;;0.57;0.57;;;7.20;99.90;;;;;;5262419;28;20085;-74
2022/01/28 11:35:40;;;;;;;0.70;0.70;;;7.00;99.90;;;;;;5281110;28;20019;-74
2022/01/28 11:38:29;;;;;;;0.52;0.52;;;6.90;99.90;;;;;;5263385;27;20028;-74
2022/01/28 11:41:14;;;;;;;1.27;1.27;;;6.70;99.90;;;;;;5279364;28;20063;-74
2022/01/28 11:43:57;;;;;;;0.73;0.73;;;6.80;99.90;;;;;;5260141;28;20015;-74
2022/01/28 11:46:38;;;;;;;0.73;0.73;;;7.00;99.90;;;;;;5281278;28;20024;-75
2022/01/28 11:49:09;;;;;;;0.75;0.75;;;7.10;99.90;;;;;;5279680;28;20517;-74
2022/01/28 11:51:43;;;;;;;0.63;0.63;;;7.20;99.90;;;;;;5280433;28;20485;-73
2022/01/28 11:54:25;;;;;;;0.70;0.70;;;6.70;99.90;;;;;;5262516;28;20037;-73
2022/01/28 11:56:56;;;;;;;0.60;0.60;;;7.10;99.90;;;;;;5258569;28;20020;-73
2022/01/28 11:59:29;;;;;;;0.70;0.70;;;7.30;99.90;;;;;;5225784;28;20058;-75
2022/01/28 12:01:59;;;;;;;0.82;0.82;;;7.20;99.90;;;;;;5274493;28;20098;-74
2022/01/28 12:04:34;;;;;;;0.50;0.50;;;7.30;99.90;;;;;;5241149;27;20059;-74
2022/01/28 12:07:18;;;;;;;0.68;0.68;;;7.50;99.90;;;;;;5283921;27;20582;-74
2022/01/28 12:09:55;;;;;;;0.55;0.55;;;7.10;99.90;;;;;;5280360;28;20020;-73
2022/01/28 12:12:44;;;;;;;0.43;0.43;;;7.00;99.90;;;;;;5261726;28;20024;-74
2022/01/28 12:15:18;;;;;;;0.60;0.60;;;6.80;99.90;;;;;;5263914;28;20031;-74
2022/01/28 12:17:53;;;;;;;0.52;0.52;;;6.90;99.90;;;;;;5279597;28;20030;-73
2022/01/28 12:20:35;;;;;;;;;;;7.10;99.90;;;;;;5276098;28;20032;-74
2022/01/28 12:23:11;;;;;;;0.52;0.52;;;7.50;99.90;;;;;;5272364;28;19971;-74
2022/01/28 12:25:43;;;;;;;0.70;0.70;;;7.00;99.90;;;;;;5261362;28;20020;-74
2022/01/28 12:28:41;;;;;;;0.60;0.60;;;6.80;99.90;;;;;;5280433;28;20032;-73
2022/01/28 12:31:23;;;;;;;0.50;0.50;;;6.20;99.90;;;;;;5278016;28;20424;-74
2022/01/28 12:33:59;;;;;;;0.70;0.70;;;6.10;99.90;;;;;;5252040;28;20036;-73
2022/01/28 12:36:33;;;;;;;0.90;0.90;;;5.80;99.90;;;;;;5273864;28;20060;-74
2022/01/28 12:41:56;;;;;;;0.88;0.88;;;5.70;99.90;;;;;;5279750;28;20026;-75
2022/01/28 12:44:30;;;;;;;0.50;0.50;;;5.60;99.90;;;;;;5279281;28;20023;-74
2022/01/28 12:47:11;;;;;;;0.40;0.40;;;5.60;99.90;;;;;;5280171;28;20027;-73
2022/01/28 12:49:42;;;;;;;0.77;0.77;;;5.60;99.90;;;;;;5261199;28;20031;-74
2022/01/28 12:52:15;;;;;;;0.60;0.60;;;5.60;99.90;;;;;;5257714;28;20030;-74
2022/01/28 12:54:49;;;;;;;3.30;3.03;;;5.70;99.90;;;;;;5277654;28;20067;-74
2022/01/28 12:57:20;;;;;;;0.73;0.73;;;5.60;99.90;;;;;;5261517;28;20305;-74
2022/01/28 12:59:56;;;;;;;0.60;0.60;;;5.60;99.90;;;;;;5262104;28;20119;-73
2022/01/28 13:02:36;;;;;;;0.60;0.60;;;5.50;99.90;;;;;;5279853;28;20069;-74
2022/01/28 13:10:41;;;;;;;2.60;2.10;;;5.50;99.90;;;;;;5279711;28;20047;-73
2022/01/28 13:13:12;;;;;;;0.65;0.65;;;5.50;99.90;;;;;;5280024;28;20028;-75
2022/01/28 13:15:52;;;;;;;0.60;0.60;;;5.50;99.90;;;;;;5280049;28;20481;-73
2022/01/28 13:18:23;;;;;;;0.45;0.45;;;5.40;99.90;;;;;;5277064;28;20023;-76
2022/01/28 13:20:54;;;;;;;0.80;0.80;;;5.40;99.90;;;;;;5280237;28;20039;-74
2022/01/28 13:23:33;;;;;;;0.45;0.45;;;5.40;99.90;;;;;;5281027;28;20038;-74
2022/01/28 13:26:06;;;;;;;0.80;0.80;;;5.40;99.90;;;;;;5261499;28;20763;-73
2022/01/28 13:28:37;;;;;;;0.55;0.55;;;5.30;99.90;;;;;;5277835;28;20050;-74
2022/01/28 13:31:08;;;;;;;0.47;0.47;;;5.30;99.90;;;;;;5274101;28;20055;-73
2022/01/28 13:33:43;;;;;;;7.18;2.05;;;5.30;99.90;;;;;;5244136;28;20032;-74
2022/01/28 13:36:14;;;;;;;0.45;0.45;;;5.30;99.90;;;;;;5277760;28;20031;-74
2022/01/28 13:38:45;;;;;;;0.40;0.40;;;5.40;99.90;;;;;;5283446;28;20022;-74
2022/01/28 13:41:24;;;;;;;0.75;0.75;;;5.40;99.90;;;;;;5263104;28;20008;-74
2022/01/28 13:43:59;;;;;;;1.85;1.17;;;5.50;99.90;;;;;;5283480;28;20023;-73
2022/01/28 13:46:35;;;;;;;0.40;0.40;;;5.70;99.90;;;;;;5283161;28;20030;-73
2022/01/28 13:49:19;;;;;;;0.73;0.73;;;5.60;99.90;;;;;;5265789;28;20038;-75
2022/01/28 13:51:52;;;;;;;0.50;0.50;;;5.60;99.90;;;;;;5285523;27;20031;-75
2022/01/28 13:54:33;;;;;;;0.70;0.70;;;5.50;99.90;;;;;;5283346;28;20096;-74
2022/01/28 13:57:11;;;;;;;0.52;0.52;;;5.30;99.90;;;;;;5267725;28;20475;-73
2022/01/28 13:59:42;;;;;;;0.63;0.63;;;5.30;99.90;;;;;;5273243;28;20032;-73
2022/01/28 14:02:18;;;;;;;0.45;0.45;;;5.30;99.90;;;;;;5281001;28;20024;-73
2022/01/28 14:04:53;;;;;;;0.40;0.40;;;5.30;99.90;;;;;;5269785;28;20441;-74
2022/01/28 14:07:30;;;;;;;0.80;0.80;;;5.20;99.90;;;;;;5271390;28;20023;-73
2022/01/28 14:10:06;;;;;;;0.43;0.43;;;5.20;99.90;;;;;;5262140;28;20534;-73
2022/01/28 14:12:48;;;;;;;0.60;0.60;;;5.20;99.90;;;;;;5244322;28;20035;-74
2022/01/28 14:17:58;;;;;;;0.60;0.60;;;5.20;99.90;;;;;;5281362;28;20043;-76
2022/01/28 14:20:32;;;;;;;0.73;0.73;;;5.20;99.90;;;;;;5282516;28;20656;-73
2022/01/28 14:23:03;;;;;;;0.73;0.73;;;5.10;99.90;;;;;;5263833;28;20325;-73
2022/01/28 14:25:34;;;;;;;0.60;0.60;;;5.20;99.90;;;;;;5261053;28;20016;-73
2022/01/28 14:28:13;;;;;;;1.63;1.52;;;5.20;99.90;;;;;;5272384;28;20033;-73
2022/01/28 14:30:44;;;;;;;2.50;2.40;;;5.10;99.90;;;;;;5260329;28;20602;-73
2022/01/28 14:33:14;;;;;;;1.48;1.38;;;5.10;99.90;;;;;;5264456;28;20066;-73
2022/01/28 14:35:45;;;;;;;0.50;0.50;;;5.10;99.90;;;;;;5281579;28;20019;-74
2022/01/28 14:38:16;;;;;;;0.60;0.60;;;5.20;99.90;;;;;;5278790;28;20236;-74
2022/01/28 14:40:47;;;;;;;0.50;0.50;;;5.20;99.90;;;;;;5274251;28;20027;-73
2022/01/28 14:43:17;;;;;;;0.50;0.50;;;5.10;99.90;;;;;;5259946;28;20087;-73
2022/01/28 14:45:48;;;;;;;0.65;0.65;;;5.10;99.90;;;;;;5246460;28;20284;-73
2022/01/28 14:48:56;;;;;;;0.40;0.40;;;5.10;99.90;;;;;;5278464;28;20028;-73
2022/01/28 14:51:28;;;;;;;0.90;0.90;;;5.10;99.90;;;;;;5159328;28;20038;-73
2022/01/28 14:54:04;;;;;;;0.50;0.50;;;5.10;99.90;;;;;;5177132;28;20251;-74
2022/01/28 14:56:37;;;;;;;0.52;0.52;;;5.10;99.90;;;;;;5180083;28;20029;-73
2022/01/28 14:59:10;;;;;;;0.50;0.50;;;5.10;99.90;;;;;;5188970;28;20558;-73
2022/01/28 15:01:41;;;;;;;0.60;0.60;;;5.10;99.90;;;;;;5176955;28;20030;-75
2022/01/28 15:04:16;;;;;;;0.70;0.70;;;5.10;99.90;;;;;;5166170;28;20476;-75
2022/01/28 15:06:47;;;;;;;0.90;0.90;;;5.10;99.90;;;;;;5132834;28;20060;-73
2022/01/28 15:09:18;;;;;;;0.75;0.75;;;5.10;99.90;;;;;;5176680;28;20049;-73
2022/01/28 15:11:49;;;;;;;0.40;0.40;;;5.10;99.90;;;;;;5159144;28;20065;-74
2022/01/28 15:14:26;;;;;;;0.50;0.50;;;5.00;99.90;;;;;;5178281;28;20449;-73
2022/01/28 15:17:00;;;;;;;0.70;0.70;;;5.00;99.90;;;;;;5159813;28;20018;-73
2022/01/28 15:19:31;;;;;;;1.05;1.05;;;5.00;99.90;;;;;;5175821;28;20117;-74